sensor_id;sensor_type;location;lat;lon;timestamp;pressure;altitude;pressure_sealevel;temperature;humidity
85882;BME280;76395;51.392;21.182;2024-03-08T00:00:36;100320.88;;;2.31;68.60
85882;BME280;76395;51.392;21.182;2024-03-08T00:01:58;100314.47;;;2.36;68.27
85882;BME280;76395;51.392;21.182;2024-03-08T00:03:00;100312.72;;;2.37;68.20
85882;BME280;76395;51.392;21.182;2024-03-08T00:04:03;100314.72;;;2.32;68.52
85882;BME280;76395;51.392;21.182;2024-03-08T00:05:07;100316.50;;;2.31;68.90
85882;BME280;76395;51.392;21.182;2024-03-08T00:06:12;100316.25;;;2.36;68.10
85882;BME280;76395;51.392;21.182;2024-03-08T00:07:14;100321.25;;;2.40;68.41
85882;BME280;76395;51.392;21.182;2024-03-08T00:08:16;100314.47;;;2.36;68.43
85882;BME280;76395;51.392;21.182;2024-03-08T00:09:17;100314.78;;;2.30;68.30
85882;BME280;76395;51.392;21.182;2024-03-08T00:10:18;100320.94;;;2.29;68.28
85882;BME280;76395;51.392;21.182;2024-03-08T00:11:21;100311.72;;;2.22;68.60
85882;BME280;76395;51.392;21.182;2024-03-08T00:12:21;100310.78;;;2.23;68.65
85882;BME280;76395;51.392;21.182;2024-03-08T00:13:22;100317.63;;;2.26;68.82
85882;BME280;76395;51.392;21.182;2024-03-08T00:14:25;100315.78;;;2.28;68.60
85882;BME280;76395;51.392;21.182;2024-03-08T00:15:28;100316.56;;;2.30;68.30
85882;BME280;76395;51.392;21.182;2024-03-08T00:16:30;100312.31;;;2.27;68.49
85882;BME280;76395;51.392;21.182;2024-03-08T00:17:31;100316.69;;;2.27;68.49
85882;BME280;76395;51.392;21.182;2024-03-08T00:18:34;100320.47;;;2.21;68.46
85882;BME280;76395;51.392;21.182;2024-03-08T00:19:35;100311.03;;;2.19;68.54
85882;BME280;76395;51.392;21.182;2024-03-08T00:20:38;100318.38;;;2.11;69.29
85882;BME280;76395;51.392;21.182;2024-03-08T00:21:39;100309.22;;;2.19;68.17
85882;BME280;76395;51.392;21.182;2024-03-08T00:22:42;100315.84;;;2.09;69.45
85882;BME280;76395;51.392;21.182;2024-03-08T00:23:43;100316.25;;;2.19;69.03
85882;BME280;76395;51.392;21.182;2024-03-08T00:24:44;100316.09;;;2.22;68.16
85882;BME280;76395;51.392;21.182;2024-03-08T00:25:45;100313.56;;;2.20;68.02
85882;BME280;76395;51.392;21.182;2024-03-08T00:26:46;100312.78;;;2.18;68.56
85882;BME280;76395;51.392;21.182;2024-03-08T00:27:48;100318.00;;;2.18;68.30
85882;BME280;76395;51.392;21.182;2024-03-08T00:28:50;100313.47;;;2.22;68.22
85882;BME280;76395;51.392;21.182;2024-03-08T00:29:52;100316.09;;;2.22;68.21
85882;BME280;76395;51.392;21.182;2024-03-08T00:30:56;100304.25;;;2.15;68.48
85882;BME280;76395;51.392;21.182;2024-03-08T00:31:57;100315.56;;;2.15;68.14
85882;BME280;76395;51.392;21.182;2024-03-08T00:32:58;100308.91;;;2.08;68.43
85882;BME280;76395;51.392;21.182;2024-03-08T00:34:00;100308.88;;;2.10;68.60
85882;BME280;76395;51.392;21.182;2024-03-08T00:35:06;100308.63;;;2.14;68.68
85882;BME280;76395;51.392;21.182;2024-03-08T00:36:07;100307.72;;;2.15;68.14
85882;BME280;76395;51.392;21.182;2024-03-08T00:37:08;100305.41;;;2.09;68.49
85882;BME280;76395;51.392;21.182;2024-03-08T00:38:09;100315.69;;;2.12;68.80
85882;BME280;76395;51.392;21.182;2024-03-08T00:39:10;100304.31;;;2.13;68.35
85882;BME280;76395;51.392;21.182;2024-03-08T00:40:12;100303.47;;;2.13;68.27
85882;BME280;76395;51.392;21.182;2024-03-08T00:41:14;100305.88;;;2.17;68.61
85882;BME280;76395;51.392;21.182;2024-03-08T00:42:19;100298.94;;;2.16;67.71
85882;BME280;76395;51.392;21.182;2024-03-08T00:43:21;100302.41;;;2.17;68.48
85882;BME280;76395;51.392;21.182;2024-03-08T00:44:22;100307.56;;;2.18;68.14
85882;BME280;76395;51.392;21.182;2024-03-08T00:45:22;100301.56;;;2.16;68.43
85882;BME280;76395;51.392;21.182;2024-03-08T00:46:24;100294.84;;;2.11;68.24
85882;BME280;76395;51.392;21.182;2024-03-08T00:47:26;100303.63;;;2.10;68.64
85882;BME280;76395;51.392;21.182;2024-03-08T00:48:27;100299.63;;;2.02;68.52
85882;BME280;76395;51.392;21.182;2024-03-08T00:49:28;100302.38;;;1.82;69.41
85882;BME280;76395;51.392;21.182;2024-03-08T00:50:29;100301.53;;;1.99;68.64
85882;BME280;76395;51.392;21.182;2024-03-08T00:51:30;100297.22;;;1.98;69.08
85882;BME280;76395;51.392;21.182;2024-03-08T00:52:31;100297.84;;;2.03;68.92
85882;BME280;76395;51.392;21.182;2024-03-08T00:53:31;100300.25;;;2.08;68.58
85882;BME280;76395;51.392;21.182;2024-03-08T00:54:33;100300.25;;;2.08;68.35
85882;BME280;76395;51.392;21.182;2024-03-08T00:55:34;100293.53;;;2.02;68.57
85882;BME280;76395;51.392;21.182;2024-03-08T00:56:35;100294.31;;;2.04;68.88
85882;BME280;76395;51.392;21.182;2024-03-08T00:57:36;100289.91;;;2.04;68.68
85882;BME280;76395;51.392;21.182;2024-03-08T00:58:37;100294.16;;;2.07;68.68
85882;BME280;76395;51.392;21.182;2024-03-08T00:59:39;100295.09;;;2.06;68.55
85882;BME280;76395;51.392;21.182;2024-03-08T01:00:40;100296.63;;;2.10;68.23
85882;BME280;76395;51.392;21.182;2024-03-08T01:01:41;100300.94;;;2.11;67.98
85882;BME280;76395;51.392;21.182;2024-03-08T01:02:42;100295.84;;;2.08;68.16
85882;BME280;76395;51.392;21.182;2024-03-08T01:03:43;100295.00;;;2.08;68.33
85882;BME280;76395;51.392;21.182;2024-03-08T01:04:44;100295.16;;;2.04;68.49
85882;BME280;76395;51.392;21.182;2024-03-08T01:05:45;100288.44;;;1.82;69.16
85882;BME280;76395;51.392;21.182;2024-03-08T01:06:48;100294.63;;;1.98;68.79
85882;BME280;76395;51.392;21.182;2024-03-08T01:07:52;100286.00;;;1.96;68.80
85882;BME280;76395;51.392;21.182;2024-03-08T01:08:53;100296.13;;;1.85;69.33
85882;BME280;76395;51.392;21.182;2024-03-08T01:09:57;100293.22;;;1.91;68.73
85882;BME280;76395;51.392;21.182;2024-03-08T01:10:57;100286.00;;;1.96;69.11
85882;BME280;76395;51.392;21.182;2024-03-08T01:11:59;100293.22;;;1.91;68.84
85882;BME280;76395;51.392;21.182;2024-03-08T01:13:01;100292.91;;;1.80;69.04
85882;BME280;76395;51.392;21.182;2024-03-08T01:14:02;100291.22;;;1.96;68.51
85882;BME280;76395;51.392;21.182;2024-03-08T01:15:03;100288.44;;;1.99;68.67
85882;BME280;76395;51.392;21.182;2024-03-08T01:16:05;100289.69;;;1.92;68.25
85882;BME280;76395;51.392;21.182;2024-03-08T01:17:06;100286.28;;;1.90;69.34
85882;BME280;76395;51.392;21.182;2024-03-08T01:18:07;100288.97;;;1.88;68.31
85882;BME280;76395;51.392;21.182;2024-03-08T01:19:08;100286.88;;;1.78;69.25
85882;BME280;76395;51.392;21.182;2024-03-08T01:20:10;100288.00;;;1.91;68.79
85882;BME280;76395;51.392;21.182;2024-03-08T01:21:13;100286.06;;;1.94;68.31
85882;BME280;76395;51.392;21.182;2024-03-08T01:22:14;100285.91;;;1.97;68.43
85882;BME280;76395;51.392;21.182;2024-03-08T01:23:14;100278.75;;;2.01;68.25
85882;BME280;76395;51.392;21.182;2024-03-08T01:24:17;100281.69;;;1.95;68.18
85882;BME280;76395;51.392;21.182;2024-03-08T01:25:17;100274.53;;;1.81;68.93
85882;BME280;76395;51.392;21.182;2024-03-08T01:26:18;100282.69;;;1.92;68.09
85882;BME280;76395;51.392;21.182;2024-03-08T01:27:19;100272.41;;;1.89;68.49
85882;BME280;76395;51.392;21.182;2024-03-08T01:28:20;100274.22;;;1.87;68.54
85882;BME280;76395;51.392;21.182;2024-03-08T01:29:20;100275.75;;;1.74;68.55
85882;BME280;76395;51.392;21.182;2024-03-08T01:30:21;100276.53;;;1.76;68.72
85882;BME280;76395;51.392;21.182;2024-03-08T01:31:24;100268.69;;;1.76;68.73
85882;BME280;76395;51.392;21.182;2024-03-08T01:32:26;100274.13;;;1.72;68.33
85882;BME280;76395;51.392;21.182;2024-03-08T01:33:27;100276.28;;;1.81;68.70
85882;BME280;76395;51.392;21.182;2024-03-08T01:34:28;100273.47;;;1.85;68.42
85882;BME280;76395;51.392;21.182;2024-03-08T01:35:29;100273.22;;;1.73;68.36
85882;BME280;76395;51.392;21.182;2024-03-08T01:36:30;100273.38;;;1.87;68.19
85882;BME280;76395;51.392;21.182;2024-03-08T01:37:31;100271.47;;;1.90;68.44
85882;BME280;76395;51.392;21.182;2024-03-08T01:38:32;100261.38;;;1.83;68.46
85882;BME280;76395;51.392;21.182;2024-03-08T01:39:32;100270.00;;;1.85;68.39
85882;BME280;76395;51.392;21.182;2024-03-08T01:40:35;100272.19;;;1.75;68.53
85882;BME280;76395;51.392;21.182;2024-03-08T01:41:37;100268.88;;;1.72;68.73
85882;BME280;76395;51.392;21.182;2024-03-08T01:42:39;100269.44;;;1.78;68.41
85882;BME280;76395;51.392;21.182;2024-03-08T01:43:40;100268.38;;;1.82;69.08
85882;BME280;76395;51.392;21.182;2024-03-08T01:44:41;100276.28;;;1.81;68.19
85882;BME280;76395;51.392;21.182;2024-03-08T01:45:44;100267.53;;;1.82;68.29
85882;BME280;76395;51.392;21.182;2024-03-08T01:46:46;100271.00;;;1.82;68.61
85882;BME280;76395;51.392;21.182;2024-03-08T01:47:48;100271.00;;;1.82;68.76
85882;BME280;76395;51.392;21.182;2024-03-08T01:48:49;100276.22;;;1.82;69.02
85882;BME280;76395;51.392;21.182;2024-03-08T01:49:52;100272.84;;;1.80;68.08
85882;BME280;76395;51.392;21.182;2024-03-08T01:50:54;100277.22;;;1.80;68.39
85882;BME280;76395;51.392;21.182;2024-03-08T01:51:56;100274.38;;;1.84;68.18
85882;BME280;76395;51.392;21.182;2024-03-08T01:52:58;100275.50;;;1.79;68.16
85882;BME280;76395;51.392;21.182;2024-03-08T01:54:02;100269.66;;;1.74;68.58
85882;BME280;76395;51.392;21.182;2024-03-08T01:55:05;100275.66;;;1.76;68.18
85882;BME280;76395;51.392;21.182;2024-03-08T01:56:09;100275.91;;;1.71;68.41
85882;BME280;76395;51.392;21.182;2024-03-08T01:57:11;100276.88;;;1.69;68.26
85882;BME280;76395;51.392;21.182;2024-03-08T01:58:13;100278.56;;;1.70;68.55
85882;BME280;76395;51.392;21.182;2024-03-08T01:59:17;100276.72;;;1.72;68.35
85882;BME280;76395;51.392;21.182;2024-03-08T02:02:01;100277.81;;;1.68;68.81
85882;BME280;76395;51.392;21.182;2024-03-08T02:03:04;100279.41;;;1.70;68.56
85882;BME280;76395;51.392;21.182;2024-03-08T02:04:06;100273.22;;;1.73;68.42
85882;BME280;76395;51.392;21.182;2024-03-08T02:05:07;100281.81;;;1.75;68.43
85882;BME280;76395;51.392;21.182;2024-03-08T02:06:11;100274.34;;;1.67;68.62
85882;BME280;76395;51.392;21.182;2024-03-08T02:07:15;100272.28;;;1.74;68.11
85882;BME280;76395;51.392;21.182;2024-03-08T02:08:16;100276.59;;;1.75;67.93
85882;BME280;76395;51.392;21.182;2024-03-08T02:09:17;100268.81;;;1.73;68.44
85882;BME280;76395;51.392;21.182;2024-03-08T02:10:18;100269.53;;;1.77;67.72
85882;BME280;76395;51.392;21.182;2024-03-08T02:11:20;100272.28;;;1.74;68.39
85882;BME280;76395;51.392;21.182;2024-03-08T02:12:22;100276.66;;;1.73;68.08
85882;BME280;76395;51.392;21.182;2024-03-08T02:13:25;100270.59;;;1.73;68.14
85882;BME280;76395;51.392;21.182;2024-03-08T02:14:29;100267.13;;;1.72;67.45
85882;BME280;76395;51.392;21.182;2024-03-08T02:15:55;100269.75;;;1.72;67.77
85882;BME280;76395;51.392;21.182;2024-03-08T02:17:03;100272.72;;;1.65;67.99
85882;BME280;76395;51.392;21.182;2024-03-08T02:18:05;100271.13;;;1.62;68.25
85882;BME280;76395;51.392;21.182;2024-03-08T02:19:09;100272.78;;;1.63;67.95
85882;BME280;76395;51.392;21.182;2024-03-08T02:20:10;100275.31;;;1.65;68.35
85882;BME280;76395;51.392;21.182;2024-03-08T02:21:16;100271.16;;;1.61;68.38
85882;BME280;76395;51.392;21.182;2024-03-08T02:22:19;100271.88;;;1.64;68.58
85882;BME280;76395;51.392;21.182;2024-03-08T02:23:24;100273.88;;;1.41;68.19
85882;BME280;76395;51.392;21.182;2024-03-08T02:24:26;100274.38;;;1.49;68.92
85882;BME280;76395;51.392;21.182;2024-03-08T02:25:29;100270.34;;;1.60;68.64
85882;BME280;76395;51.392;21.182;2024-03-08T02:26:32;100269.06;;;1.50;68.83
85882;BME280;76395;51.392;21.182;2024-03-08T02:27:33;100265.47;;;1.53;68.97
85882;BME280;76395;51.392;21.182;2024-03-08T02:28:37;100269.63;;;1.57;68.65
85882;BME280;76395;51.392;21.182;2024-03-08T02:29:40;100265.88;;;1.62;68.19
85882;BME280;76395;51.392;21.182;2024-03-08T02:30:43;100268.09;;;1.70;68.09
85882;BME280;76395;51.392;21.182;2024-03-08T02:31:44;100262.19;;;1.66;68.01
85882;BME280;76395;51.392;21.182;2024-03-08T02:32:44;100263.66;;;1.55;68.75
85882;BME280;76395;51.392;21.182;2024-03-08T02:33:46;100262.44;;;1.62;68.63
85882;BME280;76395;51.392;21.182;2024-03-08T02:34:48;100256.34;;;1.61;68.52
85882;BME280;76395;51.392;21.182;2024-03-08T02:35:49;100260.72;;;1.61;68.60
85882;BME280;76395;51.392;21.182;2024-03-08T02:36:51;100262.72;;;1.56;68.22
85882;BME280;76395;51.392;21.182;2024-03-08T02:37:53;100265.03;;;1.62;68.60
85882;BME280;76395;51.392;21.182;2024-03-08T02:38:53;100262.50;;;1.60;68.28
85882;BME280;76395;51.392;21.182;2024-03-08T02:39:57;100264.09;;;1.63;68.43
85882;BME280;76395;51.392;21.182;2024-03-08T02:40:59;100260.72;;;1.61;67.97
85882;BME280;76395;51.392;21.182;2024-03-08T02:42:00;100259.03;;;1.60;68.18
85882;BME280;76395;51.392;21.182;2024-03-08T02:43:02;100260.88;;;1.58;68.54
85882;BME280;76395;51.392;21.182;2024-03-08T02:44:06;100263.47;;;1.58;68.71
85882;BME280;76395;51.392;21.182;2024-03-08T02:45:08;100263.66;;;1.55;68.64
85882;BME280;76395;51.392;21.182;2024-03-08T02:46:10;100258.09;;;1.61;68.50
85882;BME280;76395;51.392;21.182;2024-03-08T02:47:11;100253.53;;;1.66;68.32
85882;BME280;76395;51.392;21.182;2024-03-08T02:48:13;100255.28;;;1.65;68.15
85882;BME280;76395;51.392;21.182;2024-03-08T02:49:14;100258.53;;;1.52;68.29
85882;BME280;76395;51.392;21.182;2024-03-08T02:50:15;100254.94;;;1.54;68.33
85882;BME280;76395;51.392;21.182;2024-03-08T02:51:16;100248.66;;;1.58;68.32
85882;BME280;76395;51.392;21.182;2024-03-08T02:52:17;100253.97;;;1.57;68.50
85882;BME280;76395;51.392;21.182;2024-03-08T02:53:19;100260.25;;;1.53;68.40
85882;BME280;76395;51.392;21.182;2024-03-08T02:54:25;100255.59;;;1.41;68.53
85882;BME280;76395;51.392;21.182;2024-03-08T02:55:25;100253.28;;;1.53;68.42
85882;BME280;76395;51.392;21.182;2024-03-08T02:56:27;100248.66;;;1.58;68.10
85882;BME280;76395;51.392;21.182;2024-03-08T02:57:28;100257.41;;;1.57;68.55
85882;BME280;76395;51.392;21.182;2024-03-08T02:58:28;100250.41;;;1.58;68.12
85882;BME280;76395;51.392;21.182;2024-03-08T02:59:30;100256.72;;;1.54;68.22
85882;BME280;76395;51.392;21.182;2024-03-08T03:00:31;100255.72;;;1.56;68.26
85882;BME280;76395;51.392;21.182;2024-03-08T03:01:33;100250.25;;;1.61;68.23
85882;BME280;76395;51.392;21.182;2024-03-08T03:02:34;100249.44;;;1.60;68.07
85882;BME280;76395;51.392;21.182;2024-03-08T03:03:35;100240.81;;;1.58;68.08
85882;BME280;76395;51.392;21.182;2024-03-08T03:04:40;100246.97;;;1.57;68.07
85882;BME280;76395;51.392;21.182;2024-03-08T03:05:40;100246.19;;;1.55;68.22
85882;BME280;76395;51.392;21.182;2024-03-08T03:06:44;100247.97;;;1.55;68.60
85882;BME280;76395;51.392;21.182;2024-03-08T03:07:45;100253.47;;;1.49;68.73
85882;BME280;76395;51.392;21.182;2024-03-08T03:08:49;100248.09;;;1.52;68.16
85882;BME280;76395;51.392;21.182;2024-03-08T03:09:51;100245.63;;;1.49;68.22
85882;BME280;76395;51.392;21.182;2024-03-08T03:10:56;100247.31;;;1.50;68.38
85882;BME280;76395;51.392;21.182;2024-03-08T03:11:57;100252.53;;;1.50;67.78
85882;BME280;76395;51.392;21.182;2024-03-08T03:12:59;100247.47;;;1.47;68.33
85882;BME280;76395;51.392;21.182;2024-03-08T03:13:59;100252.94;;;1.42;68.48
85882;BME280;76395;51.392;21.182;2024-03-08T03:15:00;100245.03;;;1.44;68.54
85882;BME280;76395;51.392;21.182;2024-03-08T03:16:02;100250.09;;;1.47;68.16
85882;BME280;76395;51.392;21.182;2024-03-08T03:17:04;100252.53;;;1.50;68.21
85882;BME280;76395;51.392;21.182;2024-03-08T03:18:05;100249.22;;;1.46;68.03
85882;BME280;76395;51.392;21.182;2024-03-08T03:19:08;100245.03;;;1.44;68.16
85882;BME280;76395;51.392;21.182;2024-03-08T03:20:09;100248.44;;;1.44;68.45
85882;BME280;76395;51.392;21.182;2024-03-08T03:21:15;100243.03;;;1.49;68.29
85882;BME280;76395;51.392;21.182;2024-03-08T03:22:16;100246.56;;;1.48;68.44
85882;BME280;76395;51.392;21.182;2024-03-08T03:23:16;100247.84;;;1.39;68.80
85882;BME280;76395;51.392;21.182;2024-03-08T03:24:22;100247.75;;;1.41;68.38
85882;BME280;76395;51.392;21.182;2024-03-08T03:25:24;100248.69;;;1.40;68.46
85882;BME280;76395;51.392;21.182;2024-03-08T03:26:25;100252.44;;;1.34;68.51
85882;BME280;76395;51.392;21.182;2024-03-08T03:27:26;100246.22;;;1.37;68.39
85882;BME280;76395;51.392;21.182;2024-03-08T03:28:28;100247.06;;;1.37;68.24
85882;BME280;76395;51.392;21.182;2024-03-08T03:29:32;100255.75;;;1.38;68.63
85882;BME280;76395;51.392;21.182;2024-03-08T03:30:33;100244.53;;;1.36;68.51
85882;BME280;76395;51.392;21.182;2024-03-08T03:31:36;100241.91;;;1.36;68.46
85882;BME280;76395;51.392;21.182;2024-03-08T03:32:37;100240.22;;;1.35;68.40
85882;BME280;76395;51.392;21.182;2024-03-08T03:33:47;100244.19;;;1.25;69.00
85882;BME280;76395;51.392;21.182;2024-03-08T03:34:49;100242.94;;;1.15;69.16
85882;BME280;76395;51.392;21.182;2024-03-08T03:35:53;100248.25;;;1.30;69.15
85882;BME280;76395;51.392;21.182;2024-03-08T03:36:54;100240.06;;;1.38;68.38
85882;BME280;76395;51.392;21.182;2024-03-08T03:37:56;100241.75;;;1.39;68.20
85882;BME280;76395;51.392;21.182;2024-03-08T03:39:07;100254.81;;;1.39;68.57
85882;BME280;76395;51.392;21.182;2024-03-08T03:40:13;100242.69;;;1.38;68.46
85882;BME280;76395;51.392;21.182;2024-03-08T03:41:15;100244.25;;;1.42;68.26
85882;BME280;76395;51.392;21.182;2024-03-08T03:42:17;100245.38;;;1.36;68.50
85882;BME280;76395;51.392;21.182;2024-03-08T03:43:19;100246.22;;;1.37;68.66
85882;BME280;76395;51.392;21.182;2024-03-08T03:44:21;100248.00;;;1.36;68.55
85882;BME280;76395;51.392;21.182;2024-03-08T03:45:25;100244.31;;;1.40;68.28
85882;BME280;76395;51.392;21.182;2024-03-08T03:46:26;100256.59;;;1.38;68.47
85882;BME280;76395;51.392;21.182;2024-03-08T03:47:27;100243.66;;;1.35;68.58
85882;BME280;76395;51.392;21.182;2024-03-08T03:48:28;100243.19;;;1.27;68.58
85882;BME280;76395;51.392;21.182;2024-03-08T03:49:29;100241.91;;;1.36;68.33
85882;BME280;76395;51.392;21.182;2024-03-08T03:50:30;100252.44;;;1.34;68.67
85882;BME280;76395;51.392;21.182;2024-03-08T03:51:34;100239.38;;;1.34;68.55
85882;BME280;76395;51.392;21.182;2024-03-08T03:52:37;100236.69;;;1.36;68.32
85882;BME280;76395;51.392;21.182;2024-03-08T03:53:37;100243.75;;;1.34;68.30
85882;BME280;76395;51.392;21.182;2024-03-08T03:54:38;100246.16;;;1.38;68.57
85882;BME280;76395;51.392;21.182;2024-03-08T03:55:39;100236.06;;;1.31;68.43
85882;BME280;76395;51.392;21.182;2024-03-08T03:56:40;100236.53;;;1.39;68.00
85882;BME280;76395;51.392;21.182;2024-03-08T03:57:42;100240.59;;;1.27;68.44
85882;BME280;76395;51.392;21.182;2024-03-08T03:58:46;100241.13;;;1.34;67.87
85882;BME280;76395;51.392;21.182;2024-03-08T03:59:47;100237.47;;;1.38;67.88
85882;BME280;76395;51.392;21.182;2024-03-08T04:00:48;100234.78;;;1.39;67.83
85882;BME280;76395;51.392;21.182;2024-03-08T04:01:49;100233.78;;;1.42;67.66
85882;BME280;76395;51.392;21.182;2024-03-08T04:02:53;100237.63;;;1.35;67.90
85882;BME280;76395;51.392;21.182;2024-03-08T04:03:55;100234.84;;;1.38;67.58
85882;BME280;76395;51.392;21.182;2024-03-08T04:04:57;100235.78;;;1.37;67.97
85882;BME280;76395;51.392;21.182;2024-03-08T04:06:08;100229.00;;;1.33;67.93
85882;BME280;76395;51.392;21.182;2024-03-08T04:07:11;100232.47;;;1.33;68.02
85882;BME280;76395;51.392;21.182;2024-03-08T04:08:13;100229.78;;;1.35;67.87
85882;BME280;76395;51.392;21.182;2024-03-08T04:09:15;100230.59;;;1.35;68.30
85882;BME280;76395;51.392;21.182;2024-03-08T04:10:16;100228.38;;;1.28;67.96
85882;BME280;76395;51.392;21.182;2024-03-08T04:11:17;100231.97;;;1.25;68.17
85882;BME280;76395;51.392;21.182;2024-03-08T04:12:18;100229.91;;;1.32;68.11
85882;BME280;76395;51.392;21.182;2024-03-08T04:13:20;100225.38;;;1.35;67.97
85882;BME280;76395;51.392;21.182;2024-03-08T04:14:21;100234.16;;;1.34;67.63
85882;BME280;76395;51.392;21.182;2024-03-08T04:15:25;100221.25;;;1.31;67.85
85882;BME280;76395;51.392;21.182;2024-03-08T04:16:27;100224.69;;;1.32;68.15
85882;BME280;76395;51.392;21.182;2024-03-08T04:17:30;100230.50;;;1.20;68.26
85882;BME280;76395;51.392;21.182;2024-03-08T04:18:34;100223.16;;;1.28;67.76
85882;BME280;76395;51.392;21.182;2024-03-08T04:19:38;100212.94;;;1.23;68.46
85882;BME280;76395;51.392;21.182;2024-03-08T04:20:40;100226.22;;;1.19;68.71
85882;BME280;76395;51.392;21.182;2024-03-08T04:21:44;100228.03;;;1.17;68.31
85882;BME280;76395;51.392;21.182;2024-03-08T04:22:47;100231.91;;;1.08;68.59
85882;BME280;76395;51.392;21.182;2024-03-08T04:23:50;100228.38;;;0.90;69.35
85882;BME280;76395;51.392;21.182;2024-03-08T04:24:50;100226.56;;;0.92;69.35
85882;BME280;76395;51.392;21.182;2024-03-08T04:25:52;100225.88;;;1.08;69.08
85882;BME280;76395;51.392;21.182;2024-03-08T04:26:56;100225.97;;;1.04;69.14
85882;BME280;76395;51.392;21.182;2024-03-08T04:28:02;100228.25;;;1.12;68.87
85882;BME280;76395;51.392;21.182;2024-03-08T04:29:03;100230.69;;;1.15;68.79
85882;BME280;76395;51.392;21.182;2024-03-08T04:30:05;100230.94;;;1.11;68.76
85882;BME280;76395;51.392;21.182;2024-03-08T04:31:08;100229.94;;;1.13;69.17
85882;BME280;76395;51.392;21.182;2024-03-08T04:32:11;100228.50;;;1.06;69.46
85882;BME280;76395;51.392;21.182;2024-03-08T04:33:14;100231.81;;;1.10;69.00
85882;BME280;76395;51.392;21.182;2024-03-08T04:34:19;100229.22;;;1.10;68.69
85882;BME280;76395;51.392;21.182;2024-03-08T04:35:21;100228.25;;;1.12;68.70
85882;BME280;76395;51.392;21.182;2024-03-08T04:36:22;100233.53;;;0.92;69.15
85882;BME280;76395;51.392;21.182;2024-03-08T04:37:25;100223.44;;;1.03;69.06
85882;BME280;76395;51.392;21.182;2024-03-08T04:38:26;100230.22;;;1.07;68.93
85882;BME280;76395;51.392;21.182;2024-03-08T04:39:27;100228.47;;;1.08;68.63
85882;BME280;76395;51.392;21.182;2024-03-08T04:40:29;100232.13;;;1.03;68.71
85882;BME280;76395;51.392;21.182;2024-03-08T04:41:30;100228.59;;;1.04;69.19
85882;BME280;76395;51.392;21.182;2024-03-08T04:42:32;100234.03;;;1.00;68.79
85882;BME280;76395;51.392;21.182;2024-03-08T04:43:35;100225.97;;;1.04;68.73
85882;BME280;76395;51.392;21.182;2024-03-08T04:44:37;100227.53;;;1.09;68.95
85882;BME280;76395;51.392;21.182;2024-03-08T04:45:38;100224.31;;;1.03;68.95
85882;BME280;76395;51.392;21.182;2024-03-08T04:46:39;100229.88;;;0.96;68.67
85882;BME280;76395;51.392;21.182;2024-03-08T04:47:41;100223.31;;;0.87;69.31
85882;BME280;76395;51.392;21.182;2024-03-08T04:48:45;100229.25;;;0.91;69.78
85882;BME280;76395;51.392;21.182;2024-03-08T04:49:46;100229.94;;;0.94;68.76
85882;BME280;76395;51.392;21.182;2024-03-08T04:50:47;100232.31;;;0.99;69.02
85882;BME280;76395;51.392;21.182;2024-03-08T04:51:48;100228.47;;;0.89;68.95
85882;BME280;76395;51.392;21.182;2024-03-08T04:52:49;100231.56;;;0.97;68.73
85882;BME280;76395;51.392;21.182;2024-03-08T04:53:50;100231.06;;;0.89;68.72
85882;BME280;76395;51.392;21.182;2024-03-08T04:54:52;100228.81;;;0.81;68.76
85882;BME280;76395;51.392;21.182;2024-03-08T04:55:54;100230.72;;;0.78;69.38
85882;BME280;76395;51.392;21.182;2024-03-08T04:56:55;100231.91;;;0.89;69.23
85882;BME280;76395;51.392;21.182;2024-03-08T04:57:56;100233.38;;;0.95;69.70
85882;BME280;76395;51.392;21.182;2024-03-08T04:58:57;100226.81;;;0.86;69.82
85882;BME280;76395;51.392;21.182;2024-03-08T04:59:58;100227.47;;;0.91;69.47
85882;BME280;76395;51.392;21.182;2024-03-08T05:01:01;100226.22;;;1.00;69.82
85882;BME280;76395;51.392;21.182;2024-03-08T05:02:02;100229.00;;;0.95;69.53
85882;BME280;76395;51.392;21.182;2024-03-08T05:03:03;100233.19;;;0.99;68.93
85882;BME280;76395;51.392;21.182;2024-03-08T05:04:05;100225.09;;;1.06;68.57
85882;BME280;76395;51.392;21.182;2024-03-08T05:05:06;100232.13;;;1.03;68.45
85882;BME280;76395;51.392;21.182;2024-03-08T05:06:07;100231.34;;;1.01;68.96
85882;BME280;76395;51.392;21.182;2024-03-08T05:07:10;100231.00;;;0.90;69.35
85882;BME280;76395;51.392;21.182;2024-03-08T05:08:11;100223.94;;;0.92;69.47
85882;BME280;76395;51.392;21.182;2024-03-08T05:09:13;100228.94;;;0.97;68.79
85882;BME280;76395;51.392;21.182;2024-03-08T05:10:14;100226.28;;;0.98;68.75
85882;BME280;76395;51.392;21.182;2024-03-08T05:11:17;100230.41;;;1.02;69.04
85882;BME280;76395;51.392;21.182;2024-03-08T05:12:19;100225.56;;;0.95;68.80
85882;BME280;76395;51.392;21.182;2024-03-08T05:13:20;100226.91;;;1.03;68.56
85882;BME280;76395;51.392;21.182;2024-03-08T05:14:22;100225.13;;;1.04;68.54
85882;BME280;76395;51.392;21.182;2024-03-08T05:15:23;100226.75;;;1.07;68.40
85882;BME280;76395;51.392;21.182;2024-03-08T05:16:28;100224.41;;;1.00;68.60
85882;BME280;76395;51.392;21.182;2024-03-08T05:17:31;100227.88;;;1.01;68.48
85882;BME280;76395;51.392;21.182;2024-03-08T05:18:34;100224.41;;;1.00;68.67
85882;BME280;76395;51.392;21.182;2024-03-08T05:19:36;100230.50;;;1.01;68.73
85882;BME280;76395;51.392;21.182;2024-03-08T05:20:39;100224.16;;;1.07;68.27
85882;BME280;76395;51.392;21.182;2024-03-08T05:21:45;100226.28;;;0.98;68.38
85882;BME280;76395;51.392;21.182;2024-03-08T05:22:45;100230.31;;;1.06;68.42
85882;BME280;76395;51.392;21.182;2024-03-08T05:23:47;100222.41;;;1.07;68.51
85882;BME280;76395;51.392;21.182;2024-03-08T05:24:50;100226.84;;;1.05;68.57
85882;BME280;76395;51.392;21.182;2024-03-08T05:25:53;100224.16;;;1.07;68.43
85882;BME280;76395;51.392;21.182;2024-03-08T05:26:54;100231.91;;;1.08;68.44